sensor_id;sensor_type;location;lat;lon;timestamp;P1;durP1;ratioP1;P2;durP2;ratioP2
72493;SDS011;60520;49.182;-0.348;2023-07-31T00:01:32;2.53;;;1.80;;
72493;SDS011;60520;49.182;-0.348;2023-07-31T00:03:59;2.97;;;1.90;;
72493;SDS011;60520;49.182;-0.348;2023-07-31T00:06:26;2.97;;;1.70;;
72493;SDS011;60520;49.182;-0.348;2023-07-31T00:08:53;2.92;;;1.95;;
72493;SDS011;60520;49.182;-0.348;2023-07-31T00:11:20;2.22;;;1.63;;
72493;SDS011;60520;49.182;-0.348;2023-07-31T00:13:47;2.70;;;1.65;;
72493;SDS011;60520;49.182;-0.348;2023-07-31T00:16:16;3.70;;;1.80;;
72493;SDS011;60520;49.182;-0.348;2023-07-31T00:18:43;2.15;;;1.70;;
72493;SDS011;60520;49.182;-0.348;2023-07-31T00:21:10;3.20;;;1.70;;
72493;SDS011;60520;49.182;-0.348;2023-07-31T00:23:37;2.33;;;1.58;;
72493;SDS011;60520;49.182;-0.348;2023-07-31T00:26:04;2.50;;;1.85;;
72493;SDS011;60520;49.182;-0.348;2023-07-31T00:28:31;3.08;;;2.00;;
72493;SDS011;60520;49.182;-0.348;2023-07-31T00:30:58;4.68;;;1.70;;
72493;SDS011;60520;49.182;-0.348;2023-07-31T00:33:28;2.53;;;1.63;;
72493;SDS011;60520;49.182;-0.348;2023-07-31T00:35:55;2.50;;;1.80;;
72493;SDS011;60520;49.182;-0.348;2023-07-31T00:38:22;2.72;;;1.60;;
72493;SDS011;60520;49.182;-0.348;2023-07-31T00:40:49;2.40;;;1.80;;
72493;SDS011;60520;49.182;-0.348;2023-07-31T00:43:16;2.50;;;1.67;;
72493;SDS011;60520;49.182;-0.348;2023-07-31T00:45:43;2.78;;;1.90;;
72493;SDS011;60520;49.182;-0.348;2023-07-31T00:48:10;2.78;;;2.00;;
72493;SDS011;60520;49.182;-0.348;2023-07-31T00:50:39;2.63;;;1.83;;
72493;SDS011;60520;49.182;-0.348;2023-07-31T00:53:06;3.08;;;1.60;;
72493;SDS011;60520;49.182;-0.348;2023-07-31T00:55:33;3.65;;;1.85;;
72493;SDS011;60520;49.182;-0.348;2023-07-31T00:58:01;3.33;;;1.88;;
72493;SDS011;60520;49.182;-0.348;2023-07-31T01:00:28;3.42;;;1.80;;
72493;SDS011;60520;49.182;-0.348;2023-07-31T01:02:55;2.58;;;1.85;;
72493;SDS011;60520;49.182;-0.348;2023-07-31T01:05:25;3.05;;;1.83;;
72493;SDS011;60520;49.182;-0.348;2023-07-31T01:07:56;2.72;;;1.60;;
72493;SDS011;60520;49.182;-0.348;2023-07-31T01:10:26;3.30;;;1.77;;
72493;SDS011;60520;49.182;-0.348;2023-07-31T01:12:53;2.80;;;1.73;;
72493;SDS011;60520;49.182;-0.348;2023-07-31T01:15:23;2.65;;;1.55;;
72493;SDS011;60520;49.182;-0.348;2023-07-31T01:17:50;2.58;;;1.75;;
72493;SDS011;60520;49.182;-0.348;2023-07-31T01:20:18;2.85;;;1.80;;
72493;SDS011;60520;49.182;-0.348;2023-07-31T01:25:46;3.13;;;2.00;;
72493;SDS011;60520;49.182;-0.348;2023-07-31T01:28:14;3.38;;;1.70;;
72493;SDS011;60520;49.182;-0.348;2023-07-31T01:30:44;2.85;;;1.77;;
72493;SDS011;60520;49.182;-0.348;2023-07-31T01:33:14;3.17;;;2.08;;
72493;SDS011;60520;49.182;-0.348;2023-07-31T01:35:43;3.63;;;2.10;;
72493;SDS011;60520;49.182;-0.348;2023-07-31T01:38:11;2.47;;;1.80;;
72493;SDS011;60520;49.182;-0.348;2023-07-31T01:40:40;4.03;;;1.92;;
72493;SDS011;60520;49.182;-0.348;2023-07-31T01:43:09;2.83;;;1.70;;
72493;SDS011;60520;49.182;-0.348;2023-07-31T01:45:36;3.28;;;1.88;;
72493;SDS011;60520;49.182;-0.348;2023-07-31T01:48:04;2.58;;;1.67;;
72493;SDS011;60520;49.182;-0.348;2023-07-31T01:50:31;2.83;;;1.77;;
72493;SDS011;60520;49.182;-0.348;2023-07-31T01:52:58;3.13;;;1.80;;
72493;SDS011;60520;49.182;-0.348;2023-07-31T01:55:25;3.40;;;1.77;;
72493;SDS011;60520;49.182;-0.348;2023-07-31T01:57:52;5.20;;;1.95;;
72493;SDS011;60520;49.182;-0.348;2023-07-31T02:00:23;4.10;;;2.28;;
72493;SDS011;60520;49.182;-0.348;2023-07-31T02:02:50;3.03;;;1.70;;
72493;SDS011;60520;49.182;-0.348;2023-07-31T02:05:17;2.72;;;1.70;;
72493;SDS011;60520;49.182;-0.348;2023-07-31T02:07:45;2.83;;;1.80;;
72493;SDS011;60520;49.182;-0.348;2023-07-31T02:10:12;3.03;;;2.05;;
72493;SDS011;60520;49.182;-0.348;2023-07-31T02:12:39;4.10;;;2.08;;
72493;SDS011;60520;49.182;-0.348;2023-07-31T02:15:07;4.00;;;1.67;;
72493;SDS011;60520;49.182;-0.348;2023-07-31T02:17:35;3.97;;;2.15;;
72493;SDS011;60520;49.182;-0.348;2023-07-31T02:20:02;3.30;;;2.00;;
72493;SDS011;60520;49.182;-0.348;2023-07-31T02:22:30;2.95;;;1.80;;
72493;SDS011;60520;49.182;-0.348;2023-07-31T02:24:57;3.58;;;1.80;;
72493;SDS011;60520;49.182;-0.348;2023-07-31T02:27:24;2.70;;;1.75;;
72493;SDS011;60520;49.182;-0.348;2023-07-31T02:29:52;3.05;;;1.92;;
72493;SDS011;60520;49.182;-0.348;2023-07-31T02:32:20;3.25;;;1.90;;
72493;SDS011;60520;49.182;-0.348;2023-07-31T02:34:48;3.42;;;2.17;;
72493;SDS011;60520;49.182;-0.348;2023-07-31T02:37:15;3.72;;;1.98;;
72493;SDS011;60520;49.182;-0.348;2023-07-31T02:39:42;2.90;;;1.75;;
72493;SDS011;60520;49.182;-0.348;2023-07-31T02:42:10;3.83;;;1.92;;
72493;SDS011;60520;49.182;-0.348;2023-07-31T02:44:37;2.88;;;1.70;;
72493;SDS011;60520;49.182;-0.348;2023-07-31T02:47:04;2.83;;;1.80;;
72493;SDS011;60520;49.182;-0.348;2023-07-31T02:49:31;2.60;;;1.80;;
72493;SDS011;60520;49.182;-0.348;2023-07-31T02:51:59;2.85;;;1.95;;
72493;SDS011;60520;49.182;-0.348;2023-07-31T02:54:27;3.25;;;2.10;;
72493;SDS011;60520;49.182;-0.348;2023-07-31T02:56:54;3.25;;;1.92;;
72493;SDS011;60520;49.182;-0.348;2023-07-31T02:59:21;3.40;;;2.00;;
72493;SDS011;60520;49.182;-0.348;2023-07-31T03:01:48;3.38;;;1.90;;
72493;SDS011;60520;49.182;-0.348;2023-07-31T03:04:15;3.03;;;1.90;;
72493;SDS011;60520;49.182;-0.348;2023-07-31T03:06:42;3.45;;;1.80;;
72493;SDS011;60520;49.182;-0.348;2023-07-31T03:09:10;3.63;;;1.92;;
72493;SDS011;60520;49.182;-0.348;2023-07-31T03:11:38;2.75;;;1.90;;
72493;SDS011;60520;49.182;-0.348;2023-07-31T03:14:05;3.53;;;2.00;;
72493;SDS011;60520;49.182;-0.348;2023-07-31T03:16:32;4.65;;;2.33;;
72493;SDS011;60520;49.182;-0.348;2023-07-31T03:18:59;2.80;;;1.98;;
72493;SDS011;60520;49.182;-0.348;2023-07-31T03:21:26;3.30;;;2.05;;
72493;SDS011;60520;49.182;-0.348;2023-07-31T03:23:53;3.00;;;1.90;;
72493;SDS011;60520;49.182;-0.348;2023-07-31T03:26:21;3.35;;;2.00;;
72493;SDS011;60520;49.182;-0.348;2023-07-31T03:28:49;3.47;;;1.85;;
72493;SDS011;60520;49.182;-0.348;2023-07-31T03:31:16;3.85;;;2.20;;
72493;SDS011;60520;49.182;-0.348;2023-07-31T03:33:43;5.28;;;2.17;;
72493;SDS011;60520;49.182;-0.348;2023-07-31T03:36:10;2.88;;;1.80;;
72493;SDS011;60520;49.182;-0.348;2023-07-31T03:38:37;3.85;;;1.77;;
72493;SDS011;60520;49.182;-0.348;2023-07-31T03:41:04;3.53;;;2.10;;
72493;SDS011;60520;49.182;-0.348;2023-07-31T03:43:33;3.83;;;2.40;;
72493;SDS011;60520;49.182;-0.348;2023-07-31T03:46:00;3.20;;;2.03;;
72493;SDS011;60520;49.182;-0.348;2023-07-31T03:48:27;4.03;;;2.08;;
72493;SDS011;60520;49.182;-0.348;2023-07-31T03:50:54;3.70;;;1.98;;
72493;SDS011;60520;49.182;-0.348;2023-07-31T03:53:22;3.85;;;2.00;;
72493;SDS011;60520;49.182;-0.348;2023-07-31T03:55:49;3.50;;;1.85;;
72493;SDS011;60520;49.182;-0.348;2023-07-31T03:58:16;3.63;;;1.83;;
72493;SDS011;60520;49.182;-0.348;2023-07-31T04:00:45;4.65;;;2.33;;
72493;SDS011;60520;49.182;-0.348;2023-07-31T04:03:12;4.15;;;2.10;;
72493;SDS011;60520;49.182;-0.348;2023-07-31T04:05:39;3.33;;;2.10;;
72493;SDS011;60520;49.182;-0.348;2023-07-31T04:08:06;3.53;;;2.00;;
72493;SDS011;60520;49.182;-0.348;2023-07-31T04:10:33;2.70;;;2.05;;
72493;SDS011;60520;49.182;-0.348;2023-07-31T04:13:00;3.70;;;2.17;;
72493;SDS011;60520;49.182;-0.348;2023-07-31T04:15:27;3.13;;;2.05;;
72493;SDS011;60520;49.182;-0.348;2023-07-31T04:17:56;3.08;;;1.95;;
72493;SDS011;60520;49.182;-0.348;2023-07-31T04:20:23;3.80;;;2.00;;
72493;SDS011;60520;49.182;-0.348;2023-07-31T04:22:50;4.22;;;2.13;;
72493;SDS011;60520;49.182;-0.348;2023-07-31T04:25:17;3.38;;;2.10;;
72493;SDS011;60520;49.182;-0.348;2023-07-31T04:27:44;3.80;;;2.40;;
72493;SDS011;60520;49.182;-0.348;2023-07-31T04:30:11;2.78;;;1.83;;
72493;SDS011;60520;49.182;-0.348;2023-07-31T04:32:38;3.15;;;1.90;;
72493;SDS011;60520;49.182;-0.348;2023-07-31T04:35:07;4.50;;;2.28;;
72493;SDS011;60520;49.182;-0.348;2023-07-31T04:37:34;3.17;;;2.20;;
72493;SDS011;60520;49.182;-0.348;2023-07-31T04:40:01;3.55;;;1.83;;
72493;SDS011;60520;49.182;-0.348;2023-07-31T04:42:29;3.17;;;2.00;;
72493;SDS011;60520;49.182;-0.348;2023-07-31T04:44:56;3.65;;;2.10;;
72493;SDS011;60520;49.182;-0.348;2023-07-31T04:47:23;4.22;;;1.90;;
72493;SDS011;60520;49.182;-0.348;2023-07-31T04:49:50;3.58;;;1.90;;
72493;SDS011;60520;49.182;-0.348;2023-07-31T04:52:18;6.22;;;2.20;;
72493;SDS011;60520;49.182;-0.348;2023-07-31T04:54:46;5.10;;;2.30;;
72493;SDS011;60520;49.182;-0.348;2023-07-31T04:57:13;4.68;;;2.20;;
72493;SDS011;60520;49.182;-0.348;2023-07-31T04:59:40;4.32;;;2.42;;
72493;SDS011;60520;49.182;-0.348;2023-07-31T05:02:08;2.67;;;1.83;;
72493;SDS011;60520;49.182;-0.348;2023-07-31T05:04:35;4.35;;;2.00;;
72493;SDS011;60520;49.182;-0.348;2023-07-31T05:07:02;4.15;;;2.10;;
72493;SDS011;60520;49.182;-0.348;2023-07-31T05:09:31;2.38;;;1.70;;
72493;SDS011;60520;49.182;-0.348;2023-07-31T05:11:58;3.05;;;1.90;;
72493;SDS011;60520;49.182;-0.348;2023-07-31T05:14:25;3.17;;;1.95;;
72493;SDS011;60520;49.182;-0.348;2023-07-31T05:16:52;3.97;;;1.65;;
72493;SDS011;60520;49.182;-0.348;2023-07-31T05:19:19;2.47;;;1.50;;
72493;SDS011;60520;49.182;-0.348;2023-07-31T05:21:46;1.95;;;1.50;;
72493;SDS011;60520;49.182;-0.348;2023-07-31T05:24:13;3.13;;;1.60;;
72493;SDS011;60520;49.182;-0.348;2023-07-31T05:26:42;2.63;;;1.70;;
72493;SDS011;60520;49.182;-0.348;2023-07-31T05:29:09;2.47;;;1.50;;
72493;SDS011;60520;49.182;-0.348;2023-07-31T05:31:36;1.70;;;1.15;;
72493;SDS011;60520;49.182;-0.348;2023-07-31T05:34:04;2.38;;;1.52;;
72493;SDS011;60520;49.182;-0.348;2023-07-31T05:36:31;2.22;;;1.50;;
72493;SDS011;60520;49.182;-0.348;2023-07-31T05:38:58;2.22;;;1.02;;
72493;SDS011;60520;49.182;-0.348;2023-07-31T05:41:25;2.47;;;1.30;;
72493;SDS011;60520;49.182;-0.348;2023-07-31T05:43:54;2.05;;;1.20;;
72493;SDS011;60520;49.182;-0.348;2023-07-31T05:46:21;3.63;;;1.25;;
72493;SDS011;60520;49.182;-0.348;2023-07-31T05:48:48;1.45;;;1.33;;
72493;SDS011;60520;49.182;-0.348;2023-07-31T05:51:15;3.75;;;1.40;;
72493;SDS011;60520;49.182;-0.348;2023-07-31T05:53:42;1.77;;;1.20;;
72493;SDS011;60520;49.182;-0.348;2023-07-31T05:56:09;2.28;;;1.20;;
72493;SDS011;60520;49.182;-0.348;2023-07-31T05:58:36;1.92;;;1.25;;
72493;SDS011;60520;49.182;-0.348;2023-07-31T06:01:05;3.65;;;1.30;;
72493;SDS011;60520;49.182;-0.348;2023-07-31T06:03:32;1.67;;;1.05;;
72493;SDS011;60520;49.182;-0.348;2023-07-31T06:05:59;1.50;;;1.00;;
72493;SDS011;60520;49.182;-0.348;2023-07-31T06:08:26;1.85;;;1.15;;
72493;SDS011;60520;49.182;-0.348;2023-07-31T06:10:53;1.52;;;1.20;;
72493;SDS011;60520;49.182;-0.348;2023-07-31T06:13:20;1.77;;;1.00;;
72493;SDS011;60520;49.182;-0.348;2023-07-31T06:15:47;2.10;;;1.10;;
72493;SDS011;60520;49.182;-0.348;2023-07-31T06:18:16;1.42;;;1.00;;
72493;SDS011;60520;49.182;-0.348;2023-07-31T06:20:43;1.90;;;1.08;;
72493;SDS011;60520;49.182;-0.348;2023-07-31T06:23:10;1.63;;;1.05;;
72493;SDS011;60520;49.182;-0.348;2023-07-31T06:25:37;1.42;;;0.93;;
72493;SDS011;60520;49.182;-0.348;2023-07-31T06:28:04;1.35;;;0.90;;
72493;SDS011;60520;49.182;-0.348;2023-07-31T06:30:31;1.67;;;0.93;;
72493;SDS011;60520;49.182;-0.348;2023-07-31T06:32:58;1.52;;;1.02;;
72493;SDS011;60520;49.182;-0.348;2023-07-31T06:35:27;1.40;;;1.00;;
72493;SDS011;60520;49.182;-0.348;2023-07-31T06:37:54;1.48;;;0.98;;
72493;SDS011;60520;49.182;-0.348;2023-07-31T06:40:21;1.05;;;0.90;;
72493;SDS011;60520;49.182;-0.348;2023-07-31T06:42:48;1.48;;;0.90;;
72493;SDS011;60520;49.182;-0.348;2023-07-31T06:45:15;0.88;;;0.75;;
72493;SDS011;60520;49.182;-0.348;2023-07-31T06:47:43;1.17;;;0.93;;
72493;SDS011;60520;49.182;-0.348;2023-07-31T06:50:12;1.20;;;1.00;;
72493;SDS011;60520;49.182;-0.348;2023-07-31T06:52:40;1.80;;;1.00;;
72493;SDS011;60520;49.182;-0.348;2023-07-31T06:55:15;1.10;;;1.00;;
72493;SDS011;60520;49.182;-0.348;2023-07-31T06:57:43;1.83;;;1.10;;
72493;SDS011;60520;49.182;-0.348;2023-07-31T07:00:11;1.23;;;1.00;;
72493;SDS011;60520;49.182;-0.348;2023-07-31T07:02:38;1.67;;;1.00;;
72493;SDS011;60520;49.182;-0.348;2023-07-31T07:05:06;1.42;;;0.90;;
72493;SDS011;60520;49.182;-0.348;2023-07-31T07:07:33;2.08;;;1.02;;
72493;SDS011;60520;49.182;-0.348;2023-07-31T07:10:02;1.10;;;0.82;;
72493;SDS011;60520;49.182;-0.348;2023-07-31T07:12:30;1.25;;;0.82;;
72493;SDS011;60520;49.182;-0.348;2023-07-31T07:14:58;1.50;;;1.00;;
72493;SDS011;60520;49.182;-0.348;2023-07-31T07:17:25;1.05;;;0.80;;
72493;SDS011;60520;49.182;-0.348;2023-07-31T07:19:52;1.10;;;0.90;;
72493;SDS011;60520;49.182;-0.348;2023-07-31T07:22:20;0.85;;;0.70;;
72493;SDS011;60520;49.182;-0.348;2023-07-31T07:24:47;0.80;;;0.70;;
72493;SDS011;60520;49.182;-0.348;2023-07-31T07:27:15;1.33;;;0.95;;
72493;SDS011;60520;49.182;-0.348;2023-07-31T07:29:42;1.00;;;0.80;;
72493;SDS011;60520;49.182;-0.348;2023-07-31T07:32:10;1.42;;;1.00;;
72493;SDS011;60520;49.182;-0.348;2023-07-31T07:34:37;1.40;;;0.80;;
72493;SDS011;60520;49.182;-0.348;2023-07-31T07:37:04;1.20;;;0.80;;
72493;SDS011;60520;49.182;-0.348;2023-07-31T07:39:31;1.33;;;0.80;;
72493;SDS011;60520;49.182;-0.348;2023-07-31T07:41:58;1.40;;;0.90;;
72493;SDS011;60520;49.182;-0.348;2023-07-31T07:44:27;1.10;;;0.80;;
72493;SDS011;60520;49.182;-0.348;2023-07-31T07:46:54;0.90;;;0.68;;
72493;SDS011;60520;49.182;-0.348;2023-07-31T07:49:21;0.75;;;0.68;;
72493;SDS011;60520;49.182;-0.348;2023-07-31T07:51:48;1.20;;;0.70;;
72493;SDS011;60520;49.182;-0.348;2023-07-31T07:54:15;0.90;;;0.70;;
72493;SDS011;60520;49.182;-0.348;2023-07-31T07:56:43;1.00;;;0.70;;
72493;SDS011;60520;49.182;-0.348;2023-07-31T07:59:10;1.17;;;0.80;;
72493;SDS011;60520;49.182;-0.348;2023-07-31T08:01:38;1.00;;;0.70;;
72493;SDS011;60520;49.182;-0.348;2023-07-31T08:04:05;0.85;;;0.70;;
72493;SDS011;60520;49.182;-0.348;2023-07-31T08:06:33;1.13;;;0.60;;
72493;SDS011;60520;49.182;-0.348;2023-07-31T08:09:00;1.05;;;0.80;;
72493;SDS011;60520;49.182;-0.348;2023-07-31T08:11:30;0.98;;;0.70;;
72493;SDS011;60520;49.182;-0.348;2023-07-31T08:13:57;0.82;;;0.70;;
72493;SDS011;60520;49.182;-0.348;2023-07-31T08:16:24;0.80;;;0.60;;
72493;SDS011;60520;49.182;-0.348;2023-07-31T08:18:53;1.10;;;0.73;;
72493;SDS011;60520;49.182;-0.348;2023-07-31T08:21:21;0.90;;;0.70;;
72493;SDS011;60520;49.182;-0.348;2023-07-31T08:23:48;0.85;;;0.63;;
72493;SDS011;60520;49.182;-0.348;2023-07-31T08:26:15;0.68;;;0.60;;
72493;SDS011;60520;49.182;-0.348;2023-07-31T08:28:42;0.77;;;0.60;;
72493;SDS011;60520;49.182;-0.348;2023-07-31T08:31:09;1.15;;;0.77;;
72493;SDS011;60520;49.182;-0.348;2023-07-31T08:33:37;1.15;;;0.70;;
72493;SDS011;60520;49.182;-0.348;2023-07-31T08:36:05;1.27;;;0.80;;
72493;SDS011;60520;49.182;-0.348;2023-07-31T08:38:32;0.75;;;0.50;;
72493;SDS011;60520;49.182;-0.348;2023-07-31T08:41:00;1.48;;;0.57;;
72493;SDS011;60520;49.182;-0.348;2023-07-31T08:43:27;0.90;;;0.63;;
72493;SDS011;60520;49.182;-0.348;2023-07-31T08:45:54;0.90;;;0.68;;
72493;SDS011;60520;49.182;-0.348;2023-07-31T08:48:23;1.70;;;0.90;;
72493;SDS011;60520;49.182;-0.348;2023-07-31T08:50:50;0.63;;;0.60;;
72493;SDS011;60520;49.182;-0.348;2023-07-31T08:53:19;1.10;;;0.60;;
72493;SDS011;60520;49.182;-0.348;2023-07-31T08:55:47;1.02;;;0.70;;
72493;SDS011;60520;49.182;-0.348;2023-07-31T08:58:18;0.70;;;0.60;;
72493;SDS011;60520;49.182;-0.348;2023-07-31T09:00:46;0.60;;;0.50;;
72493;SDS011;60520;49.182;-0.348;2023-07-31T09:03:14;0.80;;;0.50;;
72493;SDS011;60520;49.182;-0.348;2023-07-31T09:05:42;0.50;;;0.40;;
72493;SDS011;60520;49.182;-0.348;2023-07-31T09:08:10;0.60;;;0.50;;
72493;SDS011;60520;49.182;-0.348;2023-07-31T09:10:41;0.77;;;0.50;;
72493;SDS011;60520;49.182;-0.348;2023-07-31T09:13:08;0.50;;;0.45;;
72493;SDS011;60520;49.182;-0.348;2023-07-31T09:15:36;0.70;;;0.60;;
72493;SDS011;60520;49.182;-0.348;2023-07-31T09:18:04;0.75;;;0.50;;
72493;SDS011;60520;49.182;-0.348;2023-07-31T09:20:31;0.73;;;0.45;;
72493;SDS011;60520;49.182;-0.348;2023-07-31T09:23:04;0.47;;;0.47;;
72493;SDS011;60520;49.182;-0.348;2023-07-31T09:25:32;0.63;;;0.52;;
72493;SDS011;60520;49.182;-0.348;2023-07-31T09:28:01;0.68;;;0.57;;
72493;SDS011;60520;49.182;-0.348;2023-07-31T09:30:28;0.95;;;0.55;;
72493;SDS011;60520;49.182;-0.348;2023-07-31T09:33:00;1.00;;;0.70;;
72493;SDS011;60520;49.182;-0.348;2023-07-31T09:35:28;0.95;;;0.75;;
72493;SDS011;60520;49.182;-0.348;2023-07-31T09:37:55;1.35;;;0.60;;
72493;SDS011;60520;49.182;-0.348;2023-07-31T09:40:26;0.75;;;0.60;;
72493;SDS011;60520;49.182;-0.348;2023-07-31T09:42:54;0.60;;;0.50;;
72493;SDS011;60520;49.182;-0.348;2023-07-31T09:45:24;0.70;;;0.50;;
72493;SDS011;60520;49.182;-0.348;2023-07-31T09:47:51;0.88;;;0.60;;
72493;SDS011;60520;49.182;-0.348;2023-07-31T09:50:20;1.25;;;0.60;;
72493;SDS011;60520;49.182;-0.348;2023-07-31T09:52:47;0.75;;;0.30;;
72493;SDS011;60520;49.182;-0.348;2023-07-31T09:55:14;0.60;;;0.55;;
72493;SDS011;60520;49.182;-0.348;2023-07-31T09:57:41;0.68;;;0.57;;
72493;SDS011;60520;49.182;-0.348;2023-07-31T10:00:09;0.57;;;0.50;;
72493;SDS011;60520;49.182;-0.348;2023-07-31T10:02:38;0.47;;;0.47;;
72493;SDS011;60520;49.182;-0.348;2023-07-31T10:05:06;0.50;;;0.47;;
72493;SDS011;60520;49.182;-0.348;2023-07-31T10:07:37;0.47;;;0.40;;
72493;SDS011;60520;49.182;-0.348;2023-07-31T10:10:06;1.33;;;0.52;;
72493;SDS011;60520;49.182;-0.348;2023-07-31T10:12:33;0.40;;;0.40;;
72493;SDS011;60520;49.182;-0.348;2023-07-31T10:15:01;0.88;;;0.43;;
72493;SDS011;60520;49.182;-0.348;2023-07-31T10:17:29;0.60;;;0.50;;
72493;SDS011;60520;49.182;-0.348;2023-07-31T10:19:57;1.02;;;0.60;;
72493;SDS011;60520;49.182;-0.348;2023-07-31T10:22:26;0.60;;;0.50;;
72493;SDS011;60520;49.182;-0.348;2023-07-31T10:24:54;0.80;;;0.60;;
72493;SDS011;60520;49.182;-0.348;2023-07-31T10:27:21;0.60;;;0.50;;
72493;SDS011;60520;49.182;-0.348;2023-07-31T10:29:48;0.40;;;0.40;;
72493;SDS011;60520;49.182;-0.348;2023-07-31T10:32:18;0.52;;;0.43;;
72493;SDS011;60520;49.182;-0.348;2023-07-31T10:34:45;0.63;;;0.50;;
72493;SDS011;60520;49.182;-0.348;2023-07-31T10:37:20;0.70;;;0.40;;
72493;SDS011;60520;49.182;-0.348;2023-07-31T10:39:54;0.50;;;0.50;;
72493;SDS011;60520;49.182;-0.348;2023-07-31T10:42:26;0.50;;;0.50;;
72493;SDS011;60520;49.182;-0.348;2023-07-31T10:44:55;0.93;;;0.50;;
72493;SDS011;60520;49.182;-0.348;2023-07-31T10:47:22;0.65;;;0.50;;
72493;SDS011;60520;49.182;-0.348;2023-07-31T10:49:50;0.55;;;0.47;;
72493;SDS011;60520;49.182;-0.348;2023-07-31T10:52:19;0.55;;;0.47;;
72493;SDS011;60520;49.182;-0.348;2023-07-31T10:54:49;0.40;;;0.40;;
72493;SDS011;60520;49.182;-0.348;2023-07-31T10:57:20;0.50;;;0.50;;
72493;SDS011;60520;49.182;-0.348;2023-07-31T10:59:47;0.88;;;0.60;;
72493;SDS011;60520;49.182;-0.348;2023-07-31T11:02:24;0.60;;;0.60;;
72493;SDS011;60520;49.182;-0.348;2023-07-31T11:07:48;0.60;;;0.40;;
72493;SDS011;60520;49.182;-0.348;2023-07-31T11:10:17;0.50;;;0.50;;
72493;SDS011;60520;49.182;-0.348;2023-07-31T11:12:45;0.50;;;0.50;;
72493;SDS011;60520;49.182;-0.348;2023-07-31T11:15:12;0.55;;;0.50;;
72493;SDS011;60520;49.182;-0.348;2023-07-31T11:17:39;0.75;;;0.50;;
72493;SDS011;60520;49.182;-0.348;2023-07-31T11:20:07;1.02;;;0.70;;
72493;SDS011;60520;49.182;-0.348;2023-07-31T11:22:34;0.70;;;0.50;;
72493;SDS011;60520;49.182;-0.348;2023-07-31T11:25:02;0.60;;;0.60;;
72493;SDS011;60520;49.182;-0.348;2023-07-31T11:27:38;0.80;;;0.50;;
72493;SDS011;60520;49.182;-0.348;2023-07-31T11:30:07;1.42;;;0.60;;
72493;SDS011;60520;49.182;-0.348;2023-07-31T11:32:35;0.68;;;0.60;;
72493;SDS011;60520;49.182;-0.348;2023-07-31T11:35:03;1.23;;;0.50;;
72493;SDS011;60520;49.182;-0.348;2023-07-31T11:37:38;0.75;;;0.70;;
72493;SDS011;60520;49.182;-0.348;2023-07-31T11:40:07;0.60;;;0.50;;
72493;SDS011;60520;49.182;-0.348;2023-07-31T11:42:35;0.77;;;0.50;;
72493;SDS011;60520;49.182;-0.348;2023-07-31T11:45:03;0.80;;;0.60;;
72493;SDS011;60520;49.182;-0.348;2023-07-31T11:47:31;0.70;;;0.60;;
72493;SDS011;60520;49.182;-0.348;2023-07-31T11:50:00;0.80;;;0.60;;
72493;SDS011;60520;49.182;-0.348;2023-07-31T11:52:28;0.60;;;0.60;;
72493;SDS011;60520;49.182;-0.348;2023-07-31T11:54:56;0.75;;;0.70;;
72493;SDS011;60520;49.182;-0.348;2023-07-31T11:57:24;0.80;;;0.60;;
72493;SDS011;60520;49.182;-0.348;2023-07-31T11:59:53;0.80;;;0.60;;
72493;SDS011;60520;49.182;-0.348;2023-07-31T12:02:20;0.65;;;0.55;;
72493;SDS011;60520;49.182;-0.348;2023-07-31T12:04:47;0.65;;;0.40;;
72493;SDS011;60520;49.182;-0.348;2023-07-31T12:07:14;0.63;;;0.55;;
72493;SDS011;60520;49.182;-0.348;2023-07-31T12:09:50;0.52;;;0.52;;
72493;SDS011;60520;49.182;-0.348;2023-07-31T12:12:19;0.50;;;0.50;;
72493;SDS011;60520;49.182;-0.348;2023-07-31T12:14:47;0.68;;;0.60;;
72493;SDS011;60520;49.182;-0.348;2023-07-31T12:17:17;0.60;;;0.50;;
72493;SDS011;60520;49.182;-0.348;2023-07-31T12:19:44;0.70;;;0.57;;
72493;SDS011;60520;49.182;-0.348;2023-07-31T12:22:11;0.60;;;0.60;;
72493;SDS011;60520;49.182;-0.348;2023-07-31T12:24:39;0.63;;;0.55;;
72493;SDS011;60520;49.182;-0.348;2023-07-31T12:27:10;0.95;;;0.60;;
72493;SDS011;60520;49.182;-0.348;2023-07-31T12:29:37;0.50;;;0.50;;
72493;SDS011;60520;49.182;-0.348;2023-07-31T12:32:19;0.60;;;0.57;;
72493;SDS011;60520;49.182;-0.348;2023-07-31T12:34:46;0.80;;;0.70;;
72493;SDS011;60520;49.182;-0.348;2023-07-31T12:37:13;0.98;;;0.60;;
72493;SDS011;60520;49.182;-0.348;2023-07-31T12:39:40;0.70;;;0.57;;
72493;SDS011;60520;49.182;-0.348;2023-07-31T12:42:07;0.60;;;0.60;;
72493;SDS011;60520;49.182;-0.348;2023-07-31T12:44:34;1.38;;;0.60;;
72493;SDS011;60520;49.182;-0.348;2023-07-31T12:47:01;0.82;;;0.70;;
72493;SDS011;60520;49.182;-0.348;2023-07-31T12:49:30;0.70;;;0.60;;
72493;SDS011;60520;49.182;-0.348;2023-07-31T12:51:57;1.40;;;0.60;;
72493;SDS011;60520;49.182;-0.348;2023-07-31T12:54:24;1.02;;;0.60;;
72493;SDS011;60520;49.182;-0.348;2023-07-31T12:56:51;0.80;;;0.60;;
72493;SDS011;60520;49.182;-0.348;2023-07-31T12:59:18;0.55;;;0.50;;
72493;SDS011;60520;49.182;-0.348;2023-07-31T13:01:46;0.75;;;0.70;;
72493;SDS011;60520;49.182;-0.348;2023-07-31T13:04:13;0.60;;;0.60;;
72493;SDS011;60520;49.182;-0.348;2023-07-31T13:06:42;1.20;;;0.80;;
72493;SDS011;60520;49.182;-0.348;2023-07-31T13:09:09;0.70;;;0.70;;
72493;SDS011;60520;49.182;-0.348;2023-07-31T13:11:36;1.10;;;0.80;;
72493;SDS011;60520;49.182;-0.348;2023-07-31T13:14:03;1.05;;;0.70;;
72493;SDS011;60520;49.182;-0.348;2023-07-31T13:16:30;0.70;;;0.70;;
72493;SDS011;60520;49.182;-0.348;2023-07-31T13:18:57;1.08;;;0.80;;
72493;SDS011;60520;49.182;-0.348;2023-07-31T13:21:25;0.77;;;0.70;;
72493;SDS011;60520;49.182;-0.348;2023-07-31T13:23:53;0.82;;;0.82;;
72493;SDS011;60520;49.182;-0.348;2023-07-31T13:26:22;1.13;;;0.70;;
72493;SDS011;60520;49.182;-0.348;2023-07-31T13:28:50;0.80;;;0.70;;
72493;SDS011;60520;49.182;-0.348;2023-07-31T13:31:17;1.17;;;0.90;;
72493;SDS011;60520;49.182;-0.348;2023-07-31T13:33:44;1.02;;;0.70;;
72493;SDS011;60520;49.182;-0.348;2023-07-31T13:36:11;0.85;;;0.73;;
72493;SDS011;60520;49.182;-0.348;2023-07-31T13:38:39;0.77;;;0.70;;
72493;SDS011;60520;49.182;-0.348;2023-07-31T13:41:07;1.00;;;0.80;;
72493;SDS011;60520;49.182;-0.348;2023-07-31T13:43:34;0.80;;;0.70;;
72493;SDS011;60520;49.182;-0.348;2023-07-31T13:46:01;0.95;;;0.77;;
72493;SDS011;60520;49.182;-0.348;2023-07-31T13:48:31;0.85;;;0.68;;
72493;SDS011;60520;49.182;-0.348;2023-07-31T13:50:59;1.17;;;0.70;;
72493;SDS011;60520;49.182;-0.348;2023-07-31T13:53:26;1.15;;;0.68;;
72493;SDS011;60520;49.182;-0.348;2023-07-31T13:55:53;0.90;;;0.75;;
72493;SDS011;60520;49.182;-0.348;2023-07-31T13:58:21;0.90;;;0.70;;
72493;SDS011;60520;49.182;-0.348;2023-07-31T14:00:48;1.02;;;0.80;;
72493;SDS011;60520;49.182;-0.348;2023-07-31T14:03:16;1.00;;;0.73;;
72493;SDS011;60520;49.182;-0.348;2023-07-31T14:05:43;0.90;;;0.60;;
72493;SDS011;60520;49.182;-0.348;2023-07-31T14:08:10;0.63;;;0.60;;
72493;SDS011;60520;49.182;-0.348;2023-07-31T14:10:38;1.10;;;0.82;;
72493;SDS011;60520;49.182;-0.348;2023-07-31T14:13:05;0.85;;;0.50;;
72493;SDS011;60520;49.182;-0.348;2023-07-31T14:15:34;0.70;;;0.60;;
72493;SDS011;60520;49.182;-0.348;2023-07-31T14:18:01;0.75;;;0.70;;
72493;SDS011;60520;49.182;-0.348;2023-07-31T14:20:28;0.85;;;0.70;;
72493;SDS011;60520;49.182;-0.348;2023-07-31T14:22:56;0.50;;;0.50;;
72493;SDS011;60520;49.182;-0.348;2023-07-31T14:25:24;0.60;;;0.57;;
72493;SDS011;60520;49.182;-0.348;2023-07-31T14:27:51;0.57;;;0.52;;
72493;SDS011;60520;49.182;-0.348;2023-07-31T14:30:18;1.00;;;0.70;;
72493;SDS011;60520;49.182;-0.348;2023-07-31T14:32:46;0.75;;;0.70;;
72493;SDS011;60520;49.182;-0.348;2023-07-31T14:35:14;0.75;;;0.70;;
72493;SDS011;60520;49.182;-0.348;2023-07-31T14:37:41;1.23;;;0.75;;
72493;SDS011;60520;49.182;-0.348;2023-07-31T14:40:09;0.65;;;0.52;;
72493;SDS011;60520;49.182;-0.348;2023-07-31T14:42:37;0.85;;;0.60;;